Coron, Philippines
Current Conditions -  °F | °C
As of 12:00 PM on Thursday 23 Oct 2014 (Local Time) from RPLL Reporting Station
Broken Clouds Broken Clouds  
Wind Chill: 82°   Ceiling: 10000
Heat Index: 91°   Visibility: 6mi
Dew Point: 77°   Wind: 7mph
Humidity: 84%   Direction: 270°W
Pressure: 29.85"   Gusts: NA
Location:  12°N, 120.21°E
Report Text: RPLL 230400Z 27006KT 240V300 9999 SCT023 BKN100 28/25 Q1011 NOSIG RMK A2985
Loading
Personal Weather Stations






























Interactive Weather Map
Tropical Storm Tracking
New forecast layout! Learn more

10-Day Weather Forecast

Advertisements
Track Severe Weather on mobile